createdAt,value
2023-03-28T00:01:35.313Z,56.00
2023-03-28T00:04:03.326Z,56.00
2023-03-28T00:06:31.570Z,56.20
2023-03-28T00:08:58.784Z,56.00
2023-03-28T00:11:26.072Z,55.90
2023-03-28T00:14:01.099Z,55.90
2023-03-28T00:16:34.415Z,56.00
2023-03-28T00:19:05.882Z,56.00
2023-03-28T00:21:40.132Z,56.10
2023-03-28T00:24:14.024Z,55.60
2023-03-28T00:26:42.442Z,55.70
2023-03-28T00:29:12.111Z,55.90
2023-03-28T00:31:39.530Z,55.70
2023-03-28T00:34:07.105Z,55.60
2023-03-28T00:36:34.880Z,55.60
2023-03-28T00:39:07.005Z,55.40
2023-03-28T00:41:40.104Z,55.60
2023-03-28T00:44:45.589Z,55.60
2023-03-28T00:47:51.643Z,55.50
2023-03-28T00:50:30.796Z,55.70
2023-03-28T00:53:15.707Z,55.90
2023-03-28T00:55:48.772Z,55.60
2023-03-28T00:58:23.265Z,55.60
2023-03-28T01:00:57.002Z,55.50
2023-03-28T01:03:28.962Z,55.50
2023-03-28T01:05:57.854Z,55.40
2023-03-28T01:08:36.729Z,55.40
2023-03-28T01:11:05.058Z,55.30
2023-03-28T01:13:36.992Z,55.40
2023-03-28T01:16:05.462Z,55.30
2023-03-28T01:18:36.964Z,55.30
2023-03-28T01:22:01.059Z,55.20
2023-03-28T01:25:03.758Z,55.00
2023-03-28T01:27:58.095Z,55.20
2023-03-28T01:30:57.743Z,55.10
2023-03-28T01:34:19.577Z,55.40
2023-03-28T01:36:57.151Z,55.50
2023-03-28T01:39:43.089Z,55.40
2023-03-28T01:42:30.792Z,55.30
2023-03-28T01:45:53.765Z,55.40
2023-03-28T01:48:33.875Z,55.20
2023-03-28T01:51:12.016Z,55.20
2023-03-28T01:54:04.164Z,55.10
2023-03-28T01:56:38.103Z,55.60
2023-03-28T01:59:27.122Z,55.60
2023-03-28T02:02:35.347Z,55.50
2023-03-28T02:05:12.769Z,55.40
2023-03-28T02:07:44.043Z,55.60
2023-03-28T02:10:14.169Z,55.50
2023-03-28T02:12:56.876Z,55.50
2023-03-28T02:15:44.041Z,55.20
2023-03-28T02:18:50.301Z,55.60
2023-03-28T02:22:11.427Z,55.30
2023-03-28T02:24:56.799Z,55.00
2023-03-28T02:27:37.829Z,55.40
2023-03-28T02:30:24.185Z,55.50
2023-03-28T02:32:59.080Z,55.60
2023-03-28T02:35:47.278Z,55.50
2023-03-28T02:38:54.781Z,55.50
2023-03-28T02:41:44.788Z,55.70
2023-03-28T02:44:58.627Z,55.50
2023-03-28T02:47:39.107Z,55.40
2023-03-28T02:50:27.748Z,55.40
2023-03-28T02:53:07.690Z,55.40
2023-03-28T02:55:57.744Z,55.30
2023-03-28T02:58:55.526Z,55.10
2023-03-28T03:01:25.806Z,55.10
2023-03-28T03:03:53.754Z,55.00
2023-03-28T03:06:23.117Z,54.80
2023-03-28T03:08:50.794Z,55.00
2023-03-28T03:11:21.632Z,54.80
2023-03-28T03:13:48.874Z,54.70
2023-03-28T03:16:16.154Z,54.70
2023-03-28T03:18:43.460Z,54.50
2023-03-28T03:21:10.827Z,54.50
2023-03-28T03:23:41.884Z,54.80
2023-03-28T03:26:09.656Z,54.80
2023-03-28T03:28:57.360Z,54.70
2023-03-28T03:31:27.845Z,54.70
2023-03-28T03:34:14.006Z,54.50
2023-03-28T03:36:46.416Z,54.50
2023-03-28T03:39:13.841Z,54.40
2023-03-28T03:41:41.193Z,54.10
2023-03-28T03:44:08.665Z,54.30
2023-03-28T03:46:39.492Z,54.90
2023-03-28T03:49:09.766Z,55.30
2023-03-28T03:51:39.441Z,55.70
2023-03-28T03:54:07.192Z,55.20
2023-03-28T03:56:40.715Z,55.20
2023-03-28T03:59:08.086Z,55.50
2023-03-28T04:01:41.655Z,55.50
2023-03-28T04:04:35.212Z,55.30
2023-03-28T04:07:18.715Z,55.40
2023-03-28T04:09:48.362Z,56.00
2023-03-28T04:12:17.273Z,55.90
2023-03-28T04:14:50.943Z,56.10
2023-03-28T04:17:41.505Z,55.50
2023-03-28T04:20:15.364Z,55.70
2023-03-28T04:23:01.118Z,55.60
2023-03-28T04:25:31.460Z,55.70
2023-03-28T04:28:05.374Z,55.90
2023-03-28T04:30:38.794Z,55.80
2023-03-28T04:33:25.763Z,56.10
2023-03-28T04:36:00.419Z,55.80
2023-03-28T04:38:36.740Z,55.10
2023-03-28T04:41:23.228Z,55.30
2023-03-28T04:44:03.015Z,55.80
2023-03-28T04:46:34.814Z,55.70
2023-03-28T04:49:09.756Z,55.70
2023-03-28T04:51:36.995Z,55.60
2023-03-28T04:54:04.205Z,55.40
2023-03-28T04:57:11.018Z,55.40
2023-03-28T04:59:44.128Z,55.80
2023-03-28T05:02:17.481Z,55.70
2023-03-28T05:05:06.792Z,55.70
2023-03-28T05:07:34.886Z,55.70
2023-03-28T05:10:03.856Z,55.50
2023-03-28T05:12:37.834Z,56.00
2023-03-28T05:15:06.459Z,56.10
2023-03-28T05:17:42.545Z,55.80
2023-03-28T05:20:21.354Z,55.70
2023-03-28T05:22:55.046Z,55.60
2023-03-28T05:25:22.995Z,55.60
2023-03-28T05:27:50.994Z,55.30
2023-03-28T05:30:19.013Z,55.00
2023-03-28T05:32:47.999Z,55.20
2023-03-28T05:35:16.223Z,55.00
2023-03-28T05:37:46.743Z,55.40
2023-03-28T05:40:15.473Z,55.20
2023-03-28T05:42:46.605Z,55.00
2023-03-28T05:45:16.400Z,55.10
2023-03-28T05:47:56.926Z,55.30
2023-03-28T05:50:26.770Z,54.90
2023-03-28T05:53:01.250Z,55.40
2023-03-28T05:55:28.549Z,55.00
2023-03-28T05:57:57.868Z,54.90
2023-03-28T06:00:33.117Z,55.00
2023-03-28T06:03:01.560Z,54.70
2023-03-28T06:05:36.907Z,54.20
2023-03-28T06:08:10.915Z,54.40
2023-03-28T06:10:38.781Z,54.60
2023-03-28T06:13:32.086Z,55.30
2023-03-28T06:16:03.725Z,56.40
2023-03-28T06:18:33.636Z,57.20
2023-03-28T06:21:01.168Z,57.70
2023-03-28T06:23:28.940Z,58.40
2023-03-28T06:25:58.415Z,59.10
2023-03-28T06:28:31.987Z,59.20
2023-03-28T06:31:26.147Z,59.30
2023-03-28T06:33:55.076Z,59.70
2023-03-28T06:36:24.707Z,59.70
2023-03-28T06:38:53.897Z,59.90
2023-03-28T06:41:31.108Z,60.00
2023-03-28T06:44:03.222Z,60.10
2023-03-28T06:47:06.542Z,60.20
2023-03-28T06:49:41.608Z,60.30
2023-03-28T06:52:38.600Z,59.90
2023-03-28T06:55:09.896Z,59.80
2023-03-28T06:57:37.483Z,59.30
2023-03-28T07:00:19.694Z,58.90
2023-03-28T07:03:25.878Z,58.90
2023-03-28T07:05:54.056Z,58.80
2023-03-28T07:08:21.566Z,58.20
2023-03-28T07:10:49.326Z,58.50
2023-03-28T07:13:19.628Z,58.30
2023-03-28T07:16:16.783Z,57.60
2023-03-28T07:18:44.305Z,57.50
2023-03-28T07:21:17.387Z,57.20
2023-03-28T07:23:48.995Z,56.00
2023-03-28T07:26:22.788Z,55.60
2023-03-28T07:28:50.458Z,54.40
2023-03-28T07:31:18.508Z,54.00
2023-03-28T07:33:46.055Z,53.60
2023-03-28T07:36:26.798Z,53.80
2023-03-28T07:38:57.952Z,53.70
2023-03-28T07:41:36.145Z,53.60
2023-03-28T07:44:03.670Z,53.50
2023-03-28T07:46:32.778Z,53.80
2023-03-28T07:49:00.852Z,54.10
2023-03-28T07:51:28.245Z,54.20
2023-03-28T07:53:58.522Z,54.20
2023-03-28T07:56:31.573Z,54.40
2023-03-28T07:59:15.790Z,54.60
2023-03-28T08:01:45.906Z,54.90
2023-03-28T08:04:14.048Z,55.40
2023-03-28T08:07:07.896Z,55.90
2023-03-28T08:09:42.555Z,56.40
2023-03-28T08:12:15.978Z,56.90
2023-03-28T08:14:43.497Z,57.10
2023-03-28T08:17:10.936Z,57.70
2023-03-28T08:19:38.520Z,57.40
2023-03-28T08:22:12.492Z,57.60
2023-03-28T08:25:02.499Z,57.30
2023-03-28T08:27:32.260Z,57.10
2023-03-28T08:30:10.725Z,57.00
2023-03-28T08:32:49.037Z,56.70
2023-03-28T08:35:16.844Z,56.50
2023-03-28T08:37:44.667Z,56.90
2023-03-28T08:40:16.438Z,57.00
2023-03-28T08:44:03.266Z,56.90
2023-03-28T08:46:31.121Z,56.90
2023-03-28T08:48:58.629Z,57.30
2023-03-28T08:51:47.666Z,57.10
2023-03-28T08:54:22.492Z,56.60
2023-03-28T08:56:58.219Z,56.60
2023-03-28T08:59:55.267Z,56.10
2023-03-28T09:02:28.708Z,54.90
2023-03-28T09:05:08.242Z,54.60
2023-03-28T09:07:55.696Z,54.30
2023-03-28T09:10:28.009Z,53.70
2023-03-28T09:13:46.389Z,53.70
2023-03-28T09:16:55.028Z,52.30
2023-03-28T09:20:11.236Z,52.70
2023-03-28T09:23:01.398Z,53.00
2023-03-28T09:25:44.634Z,52.20
2023-03-28T09:28:37.226Z,51.90
2023-03-28T09:31:07.202Z,51.60
2023-03-28T09:33:40.738Z,51.50
2023-03-28T09:36:19.907Z,50.20
2023-03-28T09:39:05.142Z,49.90
2023-03-28T09:42:07.988Z,50.00
2023-03-28T09:45:37.265Z,49.70
2023-03-28T09:48:36.506Z,49.50
2023-03-28T09:51:14.768Z,49.60
2023-03-28T09:53:42.668Z,49.60
2023-03-28T09:56:36.984Z,49.40
2023-03-28T09:59:29.237Z,48.70
2023-03-28T10:02:02.407Z,48.50
2023-03-28T10:04:38.151Z,48.50
2023-03-28T10:07:43.054Z,48.50
2023-03-28T10:10:22.417Z,48.10
2023-03-28T10:13:04.768Z,48.30
2023-03-28T10:15:46.075Z,48.30
2023-03-28T10:18:32.076Z,47.80
2023-03-28T10:21:26.001Z,48.00
2023-03-28T10:24:15.698Z,47.00
2023-03-28T10:26:48.078Z,46.70
2023-03-28T10:29:15.507Z,47.40
2023-03-28T10:31:48.603Z,46.20
2023-03-28T10:34:34.964Z,45.90
2023-03-28T10:37:27.899Z,45.80
2023-03-28T10:40:20.398Z,44.20
2023-03-28T10:43:14.475Z,44.10
2023-03-28T10:46:21.856Z,45.30
2023-03-28T10:49:14.390Z,45.60
2023-03-28T10:51:44.531Z,45.80
2023-03-28T10:54:55.911Z,45.60
2023-03-28T10:57:44.536Z,45.40
2023-03-28T11:00:21.348Z,46.50
2023-03-28T11:03:24.249Z,46.70
2023-03-28T11:06:10.245Z,46.30
2023-03-28T11:09:14.075Z,45.90
2023-03-28T11:12:27.633Z,45.50
2023-03-28T11:15:14.111Z,45.70
2023-03-28T11:18:32.112Z,46.40
2023-03-28T11:21:45.032Z,46.50
2023-03-28T11:24:21.263Z,45.60
2023-03-28T11:27:20.617Z,46.00
2023-03-28T11:30:23.731Z,46.10
2023-03-28T11:33:35.190Z,46.50
2023-03-28T11:36:38.952Z,46.60
2023-03-28T11:39:30.045Z,46.30
2023-03-28T11:41:59.805Z,46.80
2023-03-28T11:44:48.473Z,47.20
2023-03-28T11:47:27.275Z,46.60
2023-03-28T11:50:08.125Z,46.90
2023-03-28T11:53:33.997Z,47.20
2023-03-28T11:56:49.377Z,46.50
2023-03-28T12:00:07.947Z,46.10
2023-03-28T12:03:18.589Z,46.40
2023-03-28T12:06:13.184Z,45.70
2023-03-28T12:08:58.450Z,45.30
2023-03-28T12:12:01.522Z,45.80
2023-03-28T12:14:50.396Z,46.30
2023-03-28T12:17:53.766Z,46.10
2023-03-28T12:21:32.327Z,46.60
2023-03-28T12:24:28.329Z,47.10
2023-03-28T12:27:42.712Z,48.10
2023-03-28T12:30:40.808Z,48.40
2023-03-28T12:33:32.029Z,47.20
2023-03-28T12:36:26.282Z,47.10
2023-03-28T12:39:24.654Z,47.30
2023-03-28T12:41:53.987Z,47.60
2023-03-28T12:44:27.762Z,47.90
2023-03-28T12:47:12.348Z,48.10
2023-03-28T12:49:42.531Z,48.50
2023-03-28T12:52:19.461Z,48.80
2023-03-28T12:55:02.268Z,48.90
2023-03-28T12:57:54.676Z,49.00
2023-03-28T13:01:09.665Z,49.30
2023-03-28T13:03:45.601Z,50.40
2023-03-28T13:06:57.931Z,50.40
2023-03-28T13:09:51.994Z,50.20
2023-03-28T13:12:48.465Z,50.10
2023-03-28T13:15:16.268Z,50.10
2023-03-28T13:17:48.649Z,50.00
2023-03-28T13:20:18.810Z,49.40
2023-03-28T13:23:01.538Z,49.20
2023-03-28T13:25:32.428Z,48.30
2023-03-28T13:28:44.431Z,48.10
2023-03-28T13:31:25.666Z,47.00
2023-03-28T13:34:01.706Z,46.80
2023-03-28T13:36:29.005Z,47.00
2023-03-28T13:39:18.490Z,47.80
2023-03-28T13:41:45.747Z,47.20
2023-03-28T13:44:25.208Z,48.00
2023-03-28T13:46:54.856Z,48.90
2023-03-28T13:49:36.707Z,48.70
2023-03-28T13:52:16.024Z,48.70
2023-03-28T13:54:43.262Z,48.30
2023-03-28T13:57:17.707Z,48.00
2023-03-28T13:59:54.089Z,47.60
2023-03-28T14:02:38.110Z,47.90
2023-03-28T14:05:12.085Z,48.10
2023-03-28T14:07:40.159Z,48.60
2023-03-28T14:10:34.931Z,48.30
2023-03-28T14:13:28.819Z,48.60
2023-03-28T14:15:57.388Z,48.70
2023-03-28T14:18:35.275Z,48.70
2023-03-28T14:21:03.531Z,48.10
2023-03-28T14:23:36.969Z,47.90
2023-03-28T14:26:15.850Z,46.90
2023-03-28T14:28:45.391Z,47.10
2023-03-28T14:31:28.116Z,47.00
2023-03-28T14:33:58.537Z,46.70
2023-03-28T14:36:31.136Z,46.40
2023-03-28T14:39:07.068Z,46.50
2023-03-28T14:41:35.427Z,46.20
2023-03-28T14:44:05.195Z,46.10
2023-03-28T14:46:33.094Z,45.80
2023-03-28T14:49:02.914Z,46.00
2023-03-28T14:51:43.041Z,46.30
2023-03-28T14:54:18.501Z,46.10
2023-03-28T14:56:45.874Z,47.50
2023-03-28T14:59:16.164Z,50.20
2023-03-28T15:01:44.204Z,50.80
2023-03-28T15:04:11.444Z,51.20
2023-03-28T15:06:39.449Z,51.70
2023-03-28T15:09:45.924Z,51.90
2023-03-28T15:12:13.117Z,52.10
2023-03-28T15:14:42.645Z,51.90
2023-03-28T15:17:26.692Z,51.60
2023-03-28T15:19:58.223Z,50.70
2023-03-28T15:22:28.635Z,50.70
2023-03-28T15:24:57.114Z,50.40
2023-03-28T15:27:37.104Z,50.30
2023-03-28T15:30:14.795Z,50.10
2023-03-28T15:32:46.304Z,50.20
2023-03-28T15:35:39.899Z,49.60
2023-03-28T15:38:27.821Z,49.70
2023-03-28T15:41:25.684Z,49.40
2023-03-28T15:43:52.781Z,49.50
2023-03-28T15:46:32.926Z,49.70
2023-03-28T15:49:01.925Z,49.40
2023-03-28T15:51:29.082Z,49.60
2023-03-28T15:53:56.465Z,49.70
2023-03-28T15:56:29.848Z,50.00
2023-03-28T15:59:04.177Z,51.00
2023-03-28T16:01:33.181Z,51.90
2023-03-28T16:04:30.370Z,52.80
2023-03-28T16:07:13.730Z,53.90
2023-03-28T16:09:43.947Z,54.90
2023-03-28T16:12:15.082Z,55.10
2023-03-28T16:14:52.801Z,56.20
2023-03-28T16:17:44.501Z,56.50
2023-03-28T16:20:23.250Z,56.70
2023-03-28T16:22:51.534Z,57.10
2023-03-28T16:25:18.808Z,57.10
2023-03-28T16:27:46.123Z,57.10
2023-03-28T16:30:34.177Z,57.20
2023-03-28T16:33:01.435Z,57.30
2023-03-28T16:35:29.034Z,57.00
2023-03-28T16:37:56.479Z,57.00
2023-03-28T16:40:24.279Z,57.00
2023-03-28T16:42:51.587Z,57.00
2023-03-28T16:45:20.787Z,56.70
2023-03-28T16:47:48.064Z,56.40
2023-03-28T16:50:18.069Z,56.10
2023-03-28T16:52:45.362Z,56.00
2023-03-28T16:55:14.737Z,55.70
2023-03-28T16:57:42.277Z,55.40
2023-03-28T17:00:13.686Z,55.30
2023-03-28T17:02:41.408Z,55.10
2023-03-28T17:05:09.286Z,55.30
2023-03-28T17:07:36.975Z,55.30
2023-03-28T17:10:08.843Z,55.00
2023-03-28T17:12:36.201Z,54.80
2023-03-28T17:15:04.517Z,54.70
2023-03-28T17:17:31.746Z,54.40
2023-03-28T17:20:00.768Z,54.30
2023-03-28T17:22:30.030Z,54.40
2023-03-28T17:24:58.982Z,54.40
2023-03-28T17:27:27.805Z,54.50
2023-03-28T17:29:55.195Z,54.60
2023-03-28T17:32:22.760Z,54.30
2023-03-28T17:34:50.010Z,54.30
2023-03-28T17:37:22.360Z,54.20
2023-03-28T17:39:52.488Z,54.40
2023-03-28T17:42:19.836Z,54.50
2023-03-28T17:44:48.542Z,54.50
2023-03-28T17:47:15.883Z,54.50
2023-03-28T17:49:44.361Z,54.40
2023-03-28T17:52:11.766Z,54.50
2023-03-28T17:54:42.476Z,54.50
2023-03-28T17:57:11.731Z,54.60
2023-03-28T17:59:39.230Z,54.80
2023-03-28T18:02:06.618Z,54.90
2023-03-28T18:07:37.186Z,55.60
2023-03-28T18:10:08.888Z,56.70
2023-03-28T18:12:37.159Z,57.70
2023-03-28T18:15:08.901Z,58.20
2023-03-28T18:17:39.038Z,58.70
2023-03-28T18:20:12.720Z,58.90
2023-03-28T18:22:43.611Z,59.20
2023-03-28T18:25:11.260Z,59.10
2023-03-28T18:27:38.798Z,59.30
2023-03-28T18:30:10.131Z,59.10
2023-03-28T18:32:40.044Z,59.20
2023-03-28T18:35:11.510Z,59.00
2023-03-28T18:37:39.062Z,59.10
2023-03-28T18:40:20.032Z,58.90
2023-03-28T18:42:53.290Z,58.90
2023-03-28T18:45:24.209Z,59.00
2023-03-28T18:47:52.512Z,58.80
2023-03-28T18:50:19.737Z,58.80
2023-03-28T18:52:49.825Z,58.80
2023-03-28T18:55:20.070Z,58.70
2023-03-28T18:57:50.289Z,58.60
2023-03-28T19:00:20.914Z,58.60
2023-03-28T19:02:49.177Z,58.30
2023-03-28T19:05:17.082Z,58.10
2023-03-28T19:07:48.560Z,58.20
2023-03-28T19:10:16.278Z,58.10
2023-03-28T19:12:43.484Z,58.20
2023-03-28T19:15:12.207Z,57.70
2023-03-28T19:17:40.196Z,57.40
2023-03-28T19:20:52.085Z,57.30
2023-03-28T19:23:19.401Z,57.40
2023-03-28T19:25:54.150Z,57.00
2023-03-28T19:28:22.189Z,56.80
2023-03-28T19:30:55.827Z,56.80
2023-03-28T19:33:23.633Z,56.80
2023-03-28T19:35:50.931Z,56.80
2023-03-28T19:38:18.140Z,56.80
2023-03-28T19:40:45.982Z,56.80
2023-03-28T19:43:23.312Z,56.70
2023-03-28T19:45:50.826Z,56.50
2023-03-28T19:48:18.400Z,56.40
2023-03-28T19:50:45.838Z,56.10
2023-03-28T19:53:13.073Z,56.00
2023-03-28T19:55:40.472Z,55.90
2023-03-28T19:58:13.729Z,55.90
2023-03-28T20:00:41.387Z,55.70
2023-03-28T20:03:08.837Z,55.60
2023-03-28T20:05:47.512Z,55.50
2023-03-28T20:08:16.043Z,55.70
2023-03-28T20:10:45.117Z,55.50
2023-03-28T20:13:12.499Z,55.50
2023-03-28T20:15:47.002Z,55.30
2023-03-28T20:18:22.954Z,55.30
2023-03-28T20:21:01.077Z,55.10
2023-03-28T20:23:32.621Z,55.10
2023-03-28T20:26:33.313Z,54.80
2023-03-28T20:29:01.544Z,54.70
2023-03-28T20:31:29.678Z,54.90
2023-03-28T20:33:58.138Z,54.80
2023-03-28T20:36:25.981Z,55.00
2023-03-28T20:38:57.730Z,54.80
2023-03-28T20:41:29.881Z,54.70
2023-03-28T20:44:03.915Z,54.60
2023-03-28T20:46:34.493Z,54.70
2023-03-28T20:49:06.204Z,54.60
2023-03-28T20:51:39.219Z,54.60
2023-03-28T20:54:09.046Z,54.70
2023-03-28T20:56:36.399Z,54.70
2023-03-28T20:59:06.152Z,54.60
2023-03-28T21:01:40.587Z,54.80
2023-03-28T21:04:08.682Z,54.80
2023-03-28T21:06:41.557Z,54.90
2023-03-28T21:09:11.120Z,55.20
2023-03-28T21:11:39.877Z,55.00
2023-03-28T21:14:08.001Z,55.00
2023-03-28T21:16:39.772Z,55.00
2023-03-28T21:19:09.899Z,55.10
2023-03-28T21:21:37.647Z,55.40
2023-03-28T21:24:07.317Z,55.30
2023-03-28T21:26:35.925Z,55.30
2023-03-28T21:29:03.832Z,55.70
2023-03-28T21:31:32.076Z,55.80
2023-03-28T21:34:00.967Z,56.00
2023-03-28T21:36:28.876Z,55.80
2023-03-28T21:38:59.483Z,56.10
2023-03-28T21:41:28.033Z,56.10
2023-03-28T21:43:57.780Z,56.00
2023-03-28T21:46:25.205Z,55.90
2023-03-28T21:48:52.943Z,56.00
2023-03-28T21:51:20.134Z,56.10
2023-03-28T21:53:48.346Z,56.10
2023-03-28T21:56:16.730Z,55.90
2023-03-28T21:58:44.084Z,56.00
2023-03-28T22:01:16.205Z,55.90
2023-03-28T22:03:45.885Z,55.90
2023-03-28T22:06:14.651Z,55.80
2023-03-28T22:08:43.291Z,55.80
2023-03-28T22:11:16.302Z,55.70
2023-03-28T22:13:47.350Z,55.70
2023-03-28T22:16:15.897Z,56.20
2023-03-28T22:18:49.777Z,56.20
2023-03-28T22:21:17.599Z,56.10
2023-03-28T22:23:47.421Z,56.30
2023-03-28T22:26:15.859Z,56.20
2023-03-28T22:28:44.395Z,56.10
2023-03-28T22:31:13.879Z,55.90
2023-03-28T22:33:41.465Z,56.10
2023-03-28T22:36:09.806Z,56.20
2023-03-28T22:38:37.546Z,56.30
2023-03-28T22:41:06.245Z,56.30
2023-03-28T22:43:50.957Z,56.20
2023-03-28T22:46:18.409Z,56.30
2023-03-28T22:48:45.800Z,56.20
2023-03-28T22:51:13.970Z,56.40
2023-03-28T22:53:41.189Z,56.30
2023-03-28T22:56:08.844Z,56.40
2023-03-28T22:58:36.248Z,56.40
2023-03-28T23:01:04.092Z,56.40
2023-03-28T23:03:35.595Z,56.40
2023-03-28T23:06:08.773Z,56.60
2023-03-28T23:08:36.067Z,56.50
2023-03-28T23:11:03.662Z,56.60
2023-03-28T23:13:31.140Z,56.50
2023-03-28T23:15:58.829Z,56.50
2023-03-28T23:18:26.094Z,56.60
2023-03-28T23:20:54.013Z,56.60
2023-03-28T23:23:21.578Z,56.70
2023-03-28T23:25:48.875Z,56.40
2023-03-28T23:28:17.765Z,56.60
2023-03-28T23:30:47.589Z,56.50
2023-03-28T23:33:14.887Z,56.70
2023-03-28T23:35:43.357Z,56.70
2023-03-28T23:38:13.892Z,56.90
2023-03-28T23:40:41.475Z,56.90
2023-03-28T23:43:08.942Z,57.00
2023-03-28T23:45:37.657Z,56.90
2023-03-28T23:48:06.574Z,56.90
2023-03-28T23:50:33.872Z,57.10
2023-03-28T23:53:01.102Z,57.10
2023-03-28T23:55:29.887Z,57.10
2023-03-28T23:57:57.244Z,57.30
